Time;durP1;ratioP1;P1;durP2;ratioP2;P2;SDS_P1;SDS_P2;PMS_P1;PMS_P2;Temp;Humidity;BMP_temperature;BMP_pressure;BME280_temperature;BME280_humidity;BME280_pressure;Samples;Min_cycle;Max_cycle;Signal;HPM_P1;HPM_P2
2022/06/18 00:00:12;;;;;;;;;;;;;;;22.12;48.78;100347.53;1089417;47;19950;-84
2022/06/18 00:01:16;;;;;;;;;;;;;;;22.07;49.69;100356.34;1088135;47;19942;-84
2022/06/18 00:02:18;;;;;;;;;;;;;;;22.06;49.33;100357.38;1090004;39;20456;-85
2022/06/18 00:03:22;;;;;;;;;;;;;;;22.03;49.22;100354.25;1088256;54;19965;-84
2022/06/18 00:04:24;;;;;;;;;;;;;;;22.01;49.47;100356.38;1088210;54;19943;-85
2022/06/18 00:05:28;;;;;;;;;;;;;;;21.97;49.62;100354.06;1090184;47;19938;-86
2022/06/18 00:06:30;;;;;;;;;;;;;;;21.99;49.68;100359.28;1088210;54;19943;-85
2022/06/18 00:07:38;;;;;;;;;;;;;;;21.96;49.65;100352.41;1089856;47;19943;-85
2022/06/18 00:08:39;;;;;;;;;;;;;;;22.00;49.41;100357.41;1088259;54;19949;-87
2022/06/18 00:09:44;;;;;;;;;;;;;;;21.97;49.94;100356.78;1089473;47;19949;-84
2022/06/18 00:10:45;;;;;;;;;;;;;;;21.96;50.27;100360.56;1088258;54;19939;-85
2022/06/18 00:14:29;;;;;;;;;;;;;;;21.91;50.05;100360.38;1087535;54;19945;-85
2022/06/18 00:15:32;;;;;;;;;;;;;;;21.88;50.04;100355.34;1087858;54;19943;-86
2022/06/18 00:16:36;;;;;;;;;;;;;;;21.89;49.76;100351.56;1087811;54;19943;-84
2022/06/18 00:17:40;;;;;;;;;;;;;;;21.87;49.72;100353.66;1088137;54;19943;-87
2022/06/18 00:18:41;;;;;;;;;;;;;;;21.84;50.02;100356.81;1088212;54;19946;-85
2022/06/18 00:19:45;;;;;;;;;;;;;;;21.84;49.44;100351.34;1090651;39;20518;-84
2022/06/18 00:20:46;;;;;;;;;;;;;;;21.84;49.33;100356.81;1088247;54;19967;-85
2022/06/18 00:21:50;;;;;;;;;;;;;;;21.75;50.35;100352.63;1088129;54;19927;-85
2022/06/18 00:22:55;;;;;;;;;;;;;;;21.49;52.25;100362.47;1088200;54;19938;-86
2022/06/18 00:23:59;;;;;;;;;;;;;;;21.26;52.97;100360.97;1088214;54;19965;-85
2022/06/18 00:25:00;;;;;;;;;;;;;;;21.17;53.30;100359.50;1088268;54;19942;-86
2022/06/18 00:26:04;;;;;;;;;;;;;;;21.10;54.12;100362.22;1088218;54;19949;-86
2022/06/18 00:27:08;;;;;;;;;;;;;;;21.00;54.46;100370.75;1088191;54;19943;-85
2022/06/18 00:28:13;;;;;;;;;;;;;;;20.89;54.23;100360.50;1088212;54;19966;-85
2022/06/18 00:29:15;;;;;;;;;;;;;;;20.85;54.08;100359.25;1088168;54;19943;-84
2022/06/18 00:30:21;;;;;;;;;;;;;;;20.78;53.83;100355.69;1088194;54;19938;-87
2022/06/18 00:31:22;;;;;;;;;;;;;;;20.75;54.28;100354.19;1088172;54;19939;-85
2022/06/18 00:32:26;;;;;;;;;;;;;;;20.71;54.23;100356.44;1087727;54;19950;-85
2022/06/18 00:33:27;;;;;;;;;;;;;;;20.67;54.19;100354.34;1088102;47;19967;-86
2022/06/18 00:34:31;;;;;;;;;;;;;;;20.67;54.10;100357.91;1090843;47;19942;-86
2022/06/18 00:35:33;;;;;;;;;;;;;;;20.64;53.39;100350.16;1088619;54;19938;-85
2022/06/18 00:36:38;;;;;;;;;;;;;;;20.61;53.18;100353.28;1088646;54;19923;-86
2022/06/18 00:37:40;;;;;;;;;;;;;;;20.62;53.28;100349.53;1088572;54;19930;-86
2022/06/18 00:38:48;;;;;;;;;;;;;;;20.63;53.10;100343.06;1088611;54;19950;-87
2022/06/18 00:39:51;;;;;;;;;;;;;;;20.52;53.32;100347.22;1090511;46;19967;-86
2022/06/18 00:40:55;;;;;;;;;;;;;;;20.59;52.71;100347.25;1088680;54;19923;-86
2022/06/18 00:42:02;;;;;;;;;;;;;;;20.59;52.76;100344.53;1089092;46;19930;-86
2022/06/18 00:43:07;;;;;;;;;;;;;;;20.61;52.59;100345.13;1088397;54;19954;-88
2022/06/18 00:44:17;;;;;;;;;;;;;;;20.51;52.99;100348.25;1088583;54;19938;-87
2022/06/18 00:45:20;;;;;;;;;;;;;;;20.37;53.51;100350.06;1088545;54;19950;-85
2022/06/18 00:46:30;;;;;;;;;;;;;;;20.34;53.58;100347.75;1088514;54;19954;-86
2022/06/18 00:47:34;;;;;;;;;;;;;;;20.23;55.03;100361.88;1093415;39;20289;-85
2022/06/18 00:48:41;;;;;;;;;;;;;;;20.22;55.24;100352.06;1088529;54;19943;-83
2022/06/18 00:49:46;;;;;;;;;;;;;;;20.22;55.44;100350.19;1093363;46;19942;-86
2022/06/18 00:50:53;;;;;;;;;;;;;;;20.18;56.01;100353.53;1088250;54;19943;-87
2022/06/18 00:51:57;;;;;;;;;;;;;;;20.09;56.43;100350.97;1088921;46;20721;-84
2022/06/18 00:53:03;;;;;;;;;;;;;;;19.96;57.11;100350.88;1088196;54;19994;-85
2022/06/18 00:54:11;;;;;;;;;;;;;;;19.93;57.39;100354.00;1088229;54;19943;-85
2022/06/18 00:55:20;;;;;;;;;;;;;;;19.98;57.13;100353.41;1088311;54;19937;-86
2022/06/18 00:56:24;;;;;;;;;;;;;;;20.01;57.16;100351.13;1088258;54;19934;-84
2022/06/18 00:57:31;;;;;;;;;;;;;;;19.99;57.36;100352.34;1088262;54;19956;-86
2022/06/18 00:58:35;;;;;;;;;;;;;;;19.94;57.32;100353.81;1088274;54;19938;-85
2022/06/18 00:59:44;;;;;;;;;;;;;;;19.92;57.91;100352.34;1088264;54;19945;-86
2022/06/18 01:00:46;;;;;;;;;;;;;;;19.93;57.56;100351.31;1088371;54;19930;-86
2022/06/18 01:02:02;;;;;;;;;;;;;;;19.95;57.80;100351.91;1088846;46;19930;-85
2022/06/18 01:03:04;;;;;;;;;;;;;;;20.01;57.28;100348.44;1088489;54;19946;-85
2022/06/18 01:04:22;;;;;;;;;;;;;;;20.13;56.96;100345.13;1088929;46;19965;-85
2022/06/18 01:05:25;;;;;;;;;;;;;;;20.10;57.35;100340.94;1097293;39;20099;-87
2022/06/18 01:06:31;;;;;;;;;;;;;;;19.99;57.66;100345.06;1090634;46;20586;-86
2022/06/18 01:07:34;;;;;;;;;;;;;;;20.11;57.09;100345.34;1088592;54;19942;-86
2022/06/18 01:08:39;;;;;;;;;;;;;;;20.17;57.28;100341.81;1088559;54;19938;-84
2022/06/18 01:09:45;;;;;;;;;;;;;;;19.97;58.46;100343.59;1088586;54;19983;-87
2022/06/18 01:10:51;;;;;;;;;;;;;;;19.94;57.93;100342.97;1088604;54;19943;-84
2022/06/18 01:11:53;;;;;;;;;;;;;;;19.93;58.09;100338.56;1092622;46;19943;-86
2022/06/18 01:12:57;;;;;;;;;;;;;;;19.89;58.10;100339.97;1088608;54;19943;-87
2022/06/18 01:14:01;;;;;;;;;;;;;;;19.85;57.69;100343.25;1088637;54;19954;-86
2022/06/18 01:15:07;;;;;;;;;;;;;;;19.86;57.83;100334.13;1088237;54;19938;-86
2022/06/18 01:16:09;;;;;;;;;;;;;;;19.90;57.33;100332.69;1088585;54;19943;-86
2022/06/18 01:17:13;;;;;;;;;;;;;;;19.90;57.60;100336.25;1088539;54;19942;-85
2022/06/18 01:18:15;;;;;;;;;;;;;;;19.93;57.34;100338.56;1088578;54;19927;-85
2022/06/18 01:19:22;;;;;;;;;;;;;;;19.92;57.50;100327.91;1088272;54;19943;-87
2022/06/18 01:20:24;;;;;;;;;;;;;;;19.85;57.87;100324.28;1088711;46;20611;-86
2022/06/18 01:21:36;;;;;;;;;;;;;;;19.85;57.64;100332.41;1088629;54;19926;-85
2022/06/18 01:22:40;;;;;;;;;;;;;;;19.76;58.34;100329.03;1088578;54;19968;-85
2022/06/18 01:23:47;;;;;;;;;;;;;;;19.77;58.44;100320.69;1088558;54;19927;-85
2022/06/18 01:24:51;;;;;;;;;;;;;;;19.78;57.68;100330.50;1088560;54;19942;-86
2022/06/18 01:25:55;;;;;;;;;;;;;;;19.78;57.84;100321.53;1088522;54;19935;-86
2022/06/18 01:26:56;;;;;;;;;;;;;;;19.86;57.68;100328.69;1088503;54;19979;-85
2022/06/18 01:28:00;;;;;;;;;;;;;;;19.84;57.61;100319.91;1088312;54;19927;-83
2022/06/18 01:29:02;;;;;;;;;;;;;;;19.91;57.40;100318.94;1088341;54;19943;-85
2022/06/18 01:30:07;;;;;;;;;;;;;;;20.00;57.10;100325.03;1088330;54;19943;-85
2022/06/18 01:31:08;;;;;;;;;;;;;;;20.05;57.06;100322.56;1088806;39;20513;-86
2022/06/18 01:32:14;;;;;;;;;;;;;;;20.07;56.93;100316.94;1088351;54;19982;-86
2022/06/18 01:33:15;;;;;;;;;;;;;;;20.08;57.00;100316.72;1088330;54;19943;-85
2022/06/18 01:34:20;;;;;;;;;;;;;;;20.10;56.91;100322.81;1088448;54;19942;-85
2022/06/18 01:35:21;;;;;;;;;;;;;;;20.12;56.66;100316.34;1088391;54;19942;-84
2022/06/18 01:36:28;;;;;;;;;;;;;;;20.17;56.34;100309.25;1088084;54;19950;-84
2022/06/18 01:37:30;;;;;;;;;;;;;;;20.23;56.26;100313.03;1089537;46;19941;-86
2022/06/18 01:38:34;;;;;;;;;;;;;;;20.26;56.38;100312.63;1088118;54;19969;-85
2022/06/18 01:39:37;;;;;;;;;;;;;;;20.30;55.83;100307.63;1088068;54;19939;-84
2022/06/18 01:40:47;;;;;;;;;;;;;;;20.25;56.16;100314.53;1088108;54;19943;-84
2022/06/18 01:41:50;;;;;;;;;;;;;;;20.27;56.23;100308.88;1088099;54;19943;-87
2022/06/18 01:42:58;;;;;;;;;;;;;;;20.24;56.74;100309.28;1088175;54;19983;-84
2022/06/18 01:44:01;;;;;;;;;;;;;;;20.27;56.19;100300.75;1088127;54;19943;-86
2022/06/18 01:45:06;;;;;;;;;;;;;;;20.25;57.29;100310.97;1087800;54;19942;-87
2022/06/18 01:46:07;;;;;;;;;;;;;;;20.13;58.28;100301.72;1088121;54;19943;-87
2022/06/18 01:47:15;;;;;;;;;;;;;;;20.10;57.28;100295.66;1088064;54;19935;-87
2022/06/18 01:48:22;;;;;;;;;;;;;;;20.05;57.05;100297.31;1088456;54;19938;-85
2022/06/18 01:49:26;;;;;;;;;;;;;;;20.05;57.34;100302.72;1088472;54;19950;-86
2022/06/18 01:50:33;;;;;;;;;;;;;;;20.05;57.10;100306.28;1088158;54;19942;-84
2022/06/18 01:51:35;;;;;;;;;;;;;;;20.04;56.72;100304.59;1087989;54;19943;-85
2022/06/18 01:52:41;;;;;;;;;;;;;;;20.00;56.93;100297.91;1089016;46;19942;-85
2022/06/18 01:53:44;;;;;;;;;;;;;;;20.03;56.41;100302.09;1090295;46;19938;-87
2022/06/18 01:54:50;;;;;;;;;;;;;;;19.93;56.31;100297.88;1088452;54;19954;-83
2022/06/18 01:55:56;;;;;;;;;;;;;;;19.87;56.70;100301.41;1088231;54;19927;-84
2022/06/18 01:57:01;;;;;;;;;;;;;;;19.85;56.53;100299.88;1088391;54;19977;-84
2022/06/18 01:58:05;;;;;;;;;;;;;;;19.83;56.65;100305.50;1088029;54;20670;-85
2022/06/18 01:59:11;;;;;;;;;;;;;;;19.84;56.63;100293.63;1090942;39;20478;-86
2022/06/18 02:00:14;;;;;;;;;;;;;;;19.83;56.63;100299.25;1088352;54;19942;-84
2022/06/18 02:01:24;;;;;;;;;;;;;;;19.84;56.10;100299.03;1088462;39;20640;-84
2022/06/18 02:02:25;;;;;;;;;;;;;;;19.82;56.06;100290.25;1087913;54;19943;-85
2022/06/18 02:03:31;;;;;;;;;;;;;;;19.74;56.75;100288.53;1087961;54;19943;-84
2022/06/18 02:04:33;;;;;;;;;;;;;;;19.68;56.72;100288.50;1087994;54;19942;-84
2022/06/18 02:05:37;;;;;;;;;;;;;;;19.70;56.49;100286.41;1088338;54;20696;-87
2022/06/18 02:06:39;;;;;;;;;;;;;;;19.73;56.47;100283.31;1088414;54;19963;-84
2022/06/18 02:07:43;;;;;;;;;;;;;;;19.73;56.18;100278.75;1088376;54;19949;-84
2022/06/18 02:08:44;;;;;;;;;;;;;;;19.71;56.39;100275.38;1088419;54;19943;-84
2022/06/18 02:09:51;;;;;;;;;;;;;;;19.70;56.47;100283.72;1088415;54;19979;-83
2022/06/18 02:10:57;;;;;;;;;;;;;;;19.70;56.15;100281.00;1088257;54;19950;-83
2022/06/18 02:12:02;;;;;;;;;;;;;;;19.71;56.15;100286.25;1088321;54;20551;-84
2022/06/18 02:13:04;;;;;;;;;;;;;;;19.69;56.50;100280.16;1091892;39;20566;-84
2022/06/18 02:14:09;;;;;;;;;;;;;;;19.67;56.14;100282.22;1088898;46;19942;-84
2022/06/18 02:15:13;;;;;;;;;;;;;;;19.66;56.49;100285.97;1088589;46;19950;-83
2022/06/18 02:16:19;;;;;;;;;;;;;;;19.61;56.64;100281.16;1088057;54;20587;-84
2022/06/18 02:17:21;;;;;;;;;;;;;;;19.56;56.97;100282.78;1088367;54;19950;-85
2022/06/18 02:18:25;;;;;;;;;;;;;;;19.52;57.10;100284.22;1088324;54;20607;-85
2022/06/18 02:19:27;;;;;;;;;;;;;;;19.50;57.10;100281.72;1089021;39;20343;-85
2022/06/18 02:20:33;;;;;;;;;;;;;;;19.51;56.99;100288.81;1086127;54;19950;-77
2022/06/18 02:21:37;;;;;;;;;;;;;;;19.52;57.12;100286.94;1082913;54;19985;-78
2022/06/18 02:22:43;;;;;;;;;;;;;;;19.52;56.62;100289.66;1082663;54;19946;-77
2022/06/18 02:23:44;;;;;;;;;;;;;;;19.46;57.41;100283.97;1083477;54;20007;-77
2022/06/18 02:24:48;;;;;;;;;;;;;;;19.41;57.45;100283.75;1084608;39;20449;-77
2022/06/18 02:25:52;;;;;;;;;;;;;;;19.40;57.40;100281.22;1083686;54;19951;-78
2022/06/18 02:26:59;;;;;;;;;;;;;;;19.39;57.10;100283.09;1082697;54;19946;-77
2022/06/18 02:28:13;;;;;;;;;;;;;;;19.35;57.35;100279.13;1083267;54;19946;-78
2022/06/18 02:29:20;;;;;;;;;;;;;;;19.33;57.20;100281.19;1083189;54;19950;-77
2022/06/18 02:30:29;;;;;;;;;;;;;;;19.29;57.13;100279.88;1082570;54;19953;-77
2022/06/18 02:31:32;;;;;;;;;;;;;;;19.29;57.14;100279.88;1083483;39;20379;-77
2022/06/18 02:32:37;;;;;;;;;;;;;;;19.27;57.22;100281.97;1083126;54;19947;-78
2022/06/18 02:33:39;;;;;;;;;;;;;;;19.27;56.94;100277.38;1083473;54;19962;-79
2022/06/18 02:34:43;;;;;;;;;;;;;;;19.29;56.83;100274.47;1083860;54;19958;-78
2022/06/18 02:35:44;;;;;;;;;;;;;;;19.31;57.12;100281.38;1084429;39;20256;-78
2022/06/18 02:36:49;;;;;;;;;;;;;;;19.35;56.96;100272.84;1083705;46;20503;-77
2022/06/18 02:37:50;;;;;;;;;;;;;;;19.36;56.56;100279.94;1083237;54;19970;-77
2022/06/18 02:38:57;;;;;;;;;;;;;;;19.28;57.48;100272.78;1083117;54;20457;-77
2022/06/18 02:39:59;;;;;;;;;;;;;;;19.20;57.76;100275.63;1083307;54;19954;-77
2022/06/18 02:41:03;;;;;;;;;;;;;;;19.17;57.50;100276.88;1083557;54;19970;-77
2022/06/18 02:42:08;;;;;;;;;;;;;;;19.16;57.62;100275.19;1083529;54;19947;-77
2022/06/18 02:43:13;;;;;;;;;;;;;;;19.13;58.02;100271.00;1084067;46;19957;-77
2022/06/18 02:44:15;;;;;;;;;;;;;;;19.15;57.69;100273.53;1083505;54;19946;-77
2022/06/18 02:45:20;;;;;;;;;;;;;;;19.14;57.54;100272.69;1083361;54;19946;-77
2022/06/18 02:46:21;;;;;;;;;;;;;;;19.15;57.61;100268.97;1084178;46;19971;-78
2022/06/18 02:47:25;;;;;;;;;;;;;;;19.18;57.41;100279.38;1083496;54;19954;-76
2022/06/18 02:48:28;;;;;;;;;;;;;;;19.21;57.21;100277.31;1083763;54;19973;-77
2022/06/18 02:49:32;;;;;;;;;;;;;;;19.22;57.22;100270.88;1083747;54;19969;-79
2022/06/18 02:50:34;;;;;;;;;;;;;;;19.21;57.29;100269.19;1083683;54;19946;-78
2022/06/18 02:51:38;;;;;;;;;;;;;;;19.18;57.54;100268.53;1083753;54;19954;-77
2022/06/18 02:52:41;;;;;;;;;;;;;;;19.18;57.46;100278.56;1083449;54;19946;-78
2022/06/18 02:53:45;;;;;;;;;;;;;;;19.17;57.25;100275.03;1083590;54;19949;-78
2022/06/18 02:54:46;;;;;;;;;;;;;;;19.18;57.01;100273.97;1083639;54;19946;-78
2022/06/18 02:55:51;;;;;;;;;;;;;;;19.16;57.25;100275.19;1083215;54;19958;-78
2022/06/18 02:56:52;;;;;;;;;;;;;;;19.02;58.01;100272.41;1083999;31;20413;-78
2022/06/18 02:58:01;;;;;;;;;;;;;;;18.96;58.31;100275.88;1081895;54;19953;-77
2022/06/18 02:59:04;;;;;;;;;;;;;;;18.96;58.22;100269.63;1082985;54;19946;-78
2022/06/18 03:00:09;;;;;;;;;;;;;;;18.94;58.32;100269.78;1082530;54;19946;-78
2022/06/18 03:01:12;;;;;;;;;;;;;;;18.90;58.47;100283.88;1083444;54;19951;-75
2022/06/18 03:02:15;;;;;;;;;;;;;;;18.81;58.95;100278.59;1084370;39;20412;-77
2022/06/18 03:03:17;;;;;;;;;;;;;;;18.81;58.83;100283.19;1083034;47;20444;-77
2022/06/18 03:04:21;;;;;;;;;;;;;;;18.75;59.47;100287.50;1083239;54;19971;-78
2022/06/18 03:05:23;;;;;;;;;;;;;;;18.76;58.96;100281.06;1084068;54;19946;-78
2022/06/18 03:06:27;;;;;;;;;;;;;;;18.69;59.41;100282.88;1084313;54;19950;-76
2022/06/18 03:07:29;;;;;;;;;;;;;;;18.70;59.19;100292.69;1084192;54;19962;-79
2022/06/18 03:08:33;;;;;;;;;;;;;;;18.62;59.68;100285.50;1083970;54;19950;-77
2022/06/18 03:12:06;;;;;;;;;;;;;;;18.55;59.53;100281.91;1083947;54;19951;-78
2022/06/18 03:12:11;;;;;;;;;;;;;;;18.60;59.13;100289.44;1084112;54;20434;-78
2022/06/18 03:13:18;;;;;;;;;;;;;;;18.61;59.18;100283.81;1082817;54;19954;-78
2022/06/18 03:14:19;;;;;;;;;;;;;;;18.64;59.46;100282.59;1082722;54;20045;-77
2022/06/18 03:15:22;;;;;;;;;;;;;;;18.67;59.21;100279.53;1083360;54;19978;-78
2022/06/18 03:16:24;;;;;;;;;;;;;;;18.69;58.88;100282.88;1083977;54;19947;-78
2022/06/18 03:17:27;;;;;;;;;;;;;;;18.65;59.65;100279.72;1084189;54;19939;-78
2022/06/18 03:18:30;;;;;;;;;;;;;;;18.60;59.67;100284.84;1083128;54;19947;-79
2022/06/18 03:19:36;;;;;;;;;;;;;;;18.65;59.13;100278.88;1083725;54;19984;-78
2022/06/18 03:20:42;;;;;;;;;;;;;;;18.66;58.79;100281.38;1083363;54;19947;-78
2022/06/18 03:21:48;;;;;;;;;;;;;;;18.65;59.13;100281.56;1083685;54;19938;-78
2022/06/18 03:22:49;;;;;;;;;;;;;;;18.65;58.92;100284.28;1084005;54;19939;-77
2022/06/18 03:23:53;;;;;;;;;;;;;;;18.66;59.06;100285.97;1083218;54;19946;-78
2022/06/18 03:24:54;;;;;;;;;;;;;;;18.68;58.89;100284.72;1083695;46;20066;-77
2022/06/18 03:25:59;;;;;;;;;;;;;;;18.70;58.95;100287.25;1083854;39;20306;-78
2022/06/18 03:27:00;;;;;;;;;;;;;;;18.71;58.79;100288.91;1084204;39;20349;-77
2022/06/18 03:28:03;;;;;;;;;;;;;;;18.69;58.69;100285.59;1083624;54;19947;-77
2022/06/18 03:29:07;;;;;;;;;;;;;;;18.64;58.92;100282.59;1083405;54;19980;-78
2022/06/18 03:30:12;;;;;;;;;;;;;;;18.58;59.26;100288.78;1087041;54;19927;-82
2022/06/18 03:31:13;;;;;;;;;;;;;;;18.59;58.90;100285.06;1087601;54;19926;-80
2022/06/18 03:32:17;;;;;;;;;;;;;;;18.59;59.14;100294.00;1087291;54;19946;-79
2022/06/18 03:33:18;;;;;;;;;;;;;;;18.60;58.70;100295.69;1086006;46;19950;-78
2022/06/18 03:34:22;;;;;;;;;;;;;;;18.58;58.93;100288.78;1084918;39;20341;-78
2022/06/18 03:35:23;;;;;;;;;;;;;;;18.51;59.20;100304.94;1083141;54;19946;-79
2022/06/18 03:36:27;;;;;;;;;;;;;;;18.47;59.33;100303.66;1083548;54;19946;-77
2022/06/18 03:37:28;;;;;;;;;;;;;;;18.46;58.87;100296.59;1083781;54;19982;-77
2022/06/18 03:38:32;;;;;;;;;;;;;;;18.47;59.02;100298.22;1083633;54;19954;-78
2022/06/18 03:39:33;;;;;;;;;;;;;;;18.50;58.76;100301.41;1083957;39;20695;-78
2022/06/18 03:40:37;;;;;;;;;;;;;;;18.51;58.61;100300.41;1083977;54;19973;-79
2022/06/18 03:41:38;;;;;;;;;;;;;;;18.53;58.61;100301.03;1083669;54;19950;-79
2022/06/18 03:42:43;;;;;;;;;;;;;;;18.56;58.70;100302.53;1083408;54;19951;-78
2022/06/18 03:43:44;;;;;;;;;;;;;;;18.45;59.62;100295.72;1084056;47;20030;-78
2022/06/18 03:44:50;;;;;;;;;;;;;;;18.30;59.82;100295.75;1083236;54;19975;-78
2022/06/18 03:45:54;;;;;;;;;;;;;;;18.18;60.55;100302.69;1084056;39;20341;-77
2022/06/18 03:46:58;;;;;;;;;;;;;;;18.19;60.12;100307.06;1083148;54;19951;-78
2022/06/18 03:47:59;;;;;;;;;;;;;;;18.23;60.25;100306.50;1083334;54;19958;-78
2022/06/18 03:49:03;;;;;;;;;;;;;;;18.30;59.77;100305.75;1083676;39;20299;-78
2022/06/18 03:50:05;;;;;;;;;;;;;;;18.34;59.64;100305.19;1082390;54;19951;-79
2022/06/18 03:51:09;;;;;;;;;;;;;;;18.32;60.09;100309.13;1083141;54;19970;-78
2022/06/18 03:52:13;;;;;;;;;;;;;;;18.33;59.54;100308.06;1084489;54;19950;-77
2022/06/18 03:53:15;;;;;;;;;;;;;;;18.36;59.43;100313.97;1085712;51;19947;-78
2022/06/18 03:54:18;;;;;;;;;;;;;;;18.26;59.78;100315.25;1084254;54;19974;-77
2022/06/18 03:55:19;;;;;;;;;;;;;;;18.16;60.41;100313.69;1083803;54;19947;-78
2022/06/18 03:56:24;;;;;;;;;;;;;;;18.06;60.35;100307.72;1083767;54;19946;-78
2022/06/18 03:57:31;;;;;;;;;;;;;;;18.06;60.57;100313.13;1083570;54;19973;-78
2022/06/18 03:58:35;;;;;;;;;;;;;;;18.10;60.13;100314.44;1083686;54;19973;-77
2022/06/18 03:59:36;;;;;;;;;;;;;;;18.15;59.93;100309.31;1082901;54;19947;-77
2022/06/18 04:00:42;;;;;;;;;;;;;;;18.20;59.76;100309.59;1083054;54;19986;-78
2022/06/18 04:01:43;;;;;;;;;;;;;;;18.20;60.12;100303.31;1083314;54;19973;-78
2022/06/18 04:02:47;;;;;;;;;;;;;;;18.20;59.79;100304.19;1083182;54;19947;-78
2022/06/18 04:03:48;;;;;;;;;;;;;;;18.19;60.06;100302.50;1083722;54;19946;-77
2022/06/18 04:04:52;;;;;;;;;;;;;;;18.23;60.06;100306.50;1083804;54;19946;-78
2022/06/18 04:05:53;;;;;;;;;;;;;;;18.28;59.56;100302.38;1083262;54;20469;-78
2022/06/18 04:06:57;;;;;;;;;;;;;;;18.33;59.34;100306.22;1082852;54;19951;-76
2022/06/18 04:07:59;;;;;;;;;;;;;;;18.38;58.96;100301.06;1083246;54;19946;-77
2022/06/18 04:09:02;;;;;;;;;;;;;;;18.42;59.12;100301.50;1083819;54;19946;-77
2022/06/18 04:10:06;;;;;;;;;;;;;;;18.45;59.27;100300.31;1084303;54;20454;-79
2022/06/18 04:11:10;;;;;;;;;;;;;;;18.51;58.47;100299.53;1083867;54;19981;-78
2022/06/18 04:12:12;;;;;;;;;;;;;;;18.50;58.87;100298.72;1084154;54;19950;-78
2022/06/18 04:13:16;;;;;;;;;;;;;;;18.55;58.44;100300.84;1083939;54;19947;-78
2022/06/18 04:14:17;;;;;;;;;;;;;;;18.58;58.60;100297.75;1084307;54;20457;-78
2022/06/18 04:15:21;;;;;;;;;;;;;;;18.59;58.58;100304.84;1084697;54;19962;-78
2022/06/18 04:16:25;;;;;;;;;;;;;;;18.62;58.37;100298.19;1084371;31;20544;-79
2022/06/18 04:17:28;;;;;;;;;;;;;;;18.61;58.74;100301.94;1083463;54;20764;-78
2022/06/18 04:18:30;;;;;;;;;;;;;;;18.57;59.30;100301.47;1084338;39;20354;-78
2022/06/18 04:19:33;;;;;;;;;;;;;;;18.54;59.01;100300.00;1084383;54;19951;-78
2022/06/18 04:20:35;;;;;;;;;;;;;;;18.51;59.92;100302.25;1085116;54;19946;-77
2022/06/18 04:21:39;;;;;;;;;;;;;;;18.46;59.63;100308.22;1083828;54;20064;-79
2022/06/18 04:22:41;;;;;;;;;;;;;;;18.45;59.95;100303.84;1083803;54;19954;-77
2022/06/18 04:23:45;;;;;;;;;;;;;;;18.43;59.74;100303.19;1083553;54;19946;-78
2022/06/18 04:24:46;;;;;;;;;;;;;;;18.44;59.93;100302.16;1083908;54;19953;-79
2022/06/18 04:25:50;;;;;;;;;;;;;;;18.42;60.07;100306.91;1084072;54;19973;-78
2022/06/18 04:26:54;;;;;;;;;;;;;;;18.38;59.98;100311.06;1083203;54;19950;-77
2022/06/18 04:27:58;;;;;;;;;;;;;;;18.37;60.16;100314.78;1083153;54;19947;-78
2022/06/18 04:28:59;;;;;;;;;;;;;;;18.36;60.47;100313.09;1083673;39;20348;-77
2022/06/18 04:30:03;;;;;;;;;;;;;;;18.40;60.00;100314.41;1084031;54;19947;-77
2022/06/18 04:31:04;;;;;;;;;;;;;;;18.42;59.63;100309.63;1084123;54;19946;-79
2022/06/18 04:32:11;;;;;;;;;;;;;;;18.47;59.60;100311.75;1083420;46;20437;-78
2022/06/18 04:33:13;;;;;;;;;;;;;;;18.51;59.30;100316.63;1083674;39;20347;-78
2022/06/18 04:34:16;;;;;;;;;;;;;;;18.54;59.19;100305.41;1082357;54;19986;-78
2022/06/18 04:35:17;;;;;;;;;;;;;;;18.59;59.00;100312.13;1083030;54;19973;-78
2022/06/18 04:36:23;;;;;;;;;;;;;;;18.65;58.98;100316.78;1083784;54;20045;-78
2022/06/18 04:37:24;;;;;;;;;;;;;;;18.68;58.79;100317.22;1083074;54;19946;-78
2022/06/18 04:38:28;;;;;;;;;;;;;;;18.72;58.45;100304.13;1083046;54;19962;-78
2022/06/18 04:39:29;;;;;;;;;;;;;;;18.79;58.49;100304.22;1083404;54;19994;-77
2022/06/18 04:40:34;;;;;;;;;;;;;;;18.82;58.60;100304.66;1083767;54;19965;-78
2022/06/18 04:41:35;;;;;;;;;;;;;;;18.82;58.62;100303.84;1083649;54;19939;-77
2022/06/18 04:42:39;;;;;;;;;;;;;;;18.78;58.53;100300.69;1084115;31;20422;-77
2022/06/18 04:43:40;;;;;;;;;;;;;;;18.75;59.06;100303.75;1083745;46;19962;-79
2022/06/18 04:44:44;;;;;;;;;;;;;;;18.79;58.87;100307.78;1083046;54;20373;-78
2022/06/18 04:45:45;;;;;;;;;;;;;;;18.82;58.76;100309.25;1083314;54;19946;-78
2022/06/18 04:46:49;;;;;;;;;;;;;;;18.90;58.62;100313.69;1083620;54;19946;-77
2022/06/18 04:47:53;;;;;;;;;;;;;;;18.95;58.31;100306.69;1083218;54;19946;-80
2022/06/18 04:48:57;;;;;;;;;;;;;;;19.01;58.07;100310.50;1083164;54;19948;-77
2022/06/18 04:49:58;;;;;;;;;;;;;;;19.03;58.11;100311.16;1083507;54;20528;-78
2022/06/18 04:51:02;;;;;;;;;;;;;;;19.08;57.95;100314.09;1083622;54;20034;-78
2022/06/18 04:52:03;;;;;;;;;;;;;;;19.13;57.64;100313.50;1083157;54;19969;-78
2022/06/18 04:53:08;;;;;;;;;;;;;;;19.15;57.97;100317.72;1083232;54;19953;-79
2022/06/18 04:54:09;;;;;;;;;;;;;;;19.16;57.63;100308.56;1084661;54;20523;-83
2022/06/18 04:55:13;;;;;;;;;;;;;;;19.20;57.81;100308.16;1087924;54;19947;-77
2022/06/18 04:56:14;;;;;;;;;;;;;;;19.18;58.10;100311.91;1087801;54;19923;-78
2022/06/18 04:57:37;;;;;;;;;;;;;;;19.22;57.78;100314.22;1088141;54;19954;-79
2022/06/18 04:58:38;;;;;;;;;;;;;;;19.22;57.81;100309.66;1087774;54;19945;-81
2022/06/18 04:59:41;;;;;;;;;;;;;;;19.23;58.03;100303.19;1090783;46;19939;-78
2022/06/18 05:00:42;;;;;;;;;;;;;;;19.28;57.63;100308.88;1087563;54;19985;-78
2022/06/18 05:01:49;;;;;;;;;;;;;;;19.31;57.51;100313.06;1087664;46;19947;-79
2022/06/18 05:02:50;;;;;;;;;;;;;;;19.32;57.15;100310.13;1089411;46;19950;-82
2022/06/18 05:03:56;;;;;;;;;;;;;;;19.33;57.34;100309.09;1086228;46;19966;-80
2022/06/18 05:04:57;;;;;;;;;;;;;;;19.31;57.34;100310.34;1087095;54;19942;-79
2022/06/18 05:06:01;;;;;;;;;;;;;;;19.33;57.34;100308.28;1086841;47;19950;-79
2022/06/18 05:07:02;;;;;;;;;;;;;;;19.27;57.41;100303.66;1086654;54;19950;-80
2022/06/18 05:08:06;;;;;;;;;;;;;;;19.29;57.59;100305.13;1090401;46;19957;-78
2022/06/18 05:09:07;;;;;;;;;;;;;;;19.35;57.41;100311.63;1086386;54;19946;-81
2022/06/18 05:10:12;;;;;;;;;;;;;;;19.38;57.42;100305.81;1086824;46;19989;-77
2022/06/18 05:11:13;;;;;;;;;;;;;;;19.32;57.47;100304.72;1088207;39;20584;-80
2022/06/18 05:12:17;;;;;;;;;;;;;;;19.36;57.26;100313.31;1087433;54;19947;-79
2022/06/18 05:13:18;;;;;;;;;;;;;;;19.46;56.96;100311.09;1087447;54;19946;-79
2022/06/18 05:14:22;;;;;;;;;;;;;;;19.52;57.14;100306.75;1087548;54;19939;-78
2022/06/18 05:15:23;;;;;;;;;;;;;;;19.55;56.86;100308.25;1087232;46;19939;-78
2022/06/18 05:16:26;;;;;;;;;;;;;;;19.59;56.76;100301.38;1086362;54;20436;-79
2022/06/18 05:17:28;;;;;;;;;;;;;;;19.64;56.86;100305.16;1084007;46;19962;-79
2022/06/18 05:18:35;;;;;;;;;;;;;;;19.70;56.85;100313.53;1083623;46;19954;-78
2022/06/18 05:19:39;;;;;;;;;;;;;;;19.72;56.64;100306.91;1083252;54;19947;-78
2022/06/18 05:20:43;;;;;;;;;;;;;;;19.74;56.25;100299.38;1082007;39;20318;-79
2022/06/18 05:21:44;;;;;;;;;;;;;;;19.75;56.41;100298.34;1083195;54;19954;-78
2022/06/18 05:22:48;;;;;;;;;;;;;;;19.78;56.47;100306.09;1082692;54;19958;-77
2022/06/18 05:23:49;;;;;;;;;;;;;;;19.85;56.42;100299.88;1083114;54;19981;-78
2022/06/18 05:24:53;;;;;;;;;;;;;;;19.86;56.38;100297.00;1083559;54;20460;-79
2022/06/18 05:25:56;;;;;;;;;;;;;;;19.92;55.98;100292.66;1083362;54;19958;-78
2022/06/18 05:27:01;;;;;;;;;;;;;;;19.87;56.29;100298.69;1083368;54;19950;-79
2022/06/18 05:28:03;;;;;;;;;;;;;;;19.86;55.97;100299.72;1085529;54;19958;-81
2022/06/18 05:29:06;;;;;;;;;;;;;;;19.80;56.33;100298.59;1085807;54;19950;-80
2022/06/18 05:30:09;;;;;;;;;;;;;;;19.77;56.26;100298.16;1086735;54;19942;-77
2022/06/18 05:31:13;;;;;;;;;;;;;;;19.76;56.48;100300.03;1082759;54;19966;-78